首页
METAR-TAF:

METAR-TAF

机场 :

New Bern, 北卡罗来纳州, 美国

纬度: 35-04-03N, 经度: 077-02-50W, 海拔: 5米

当前天气观测

该预报发布于1小时和27分钟前的18:54 UTC
风速15节,风向,有时为23节阵风
温度 2°C
湿度 64%
气压 1031 hPa
能見度: 16.1公里
多云层高于2700英尺
多云层高于3300英尺

METAR: KEWN 211854Z 36015G23KT 10SM BKN027 BKN033 02/M04 A3044 RMK AO2 SLP309 T00171039

时间: 15:21 (20:21 UTC)

预报

该预报发布于41分钟前的19:40 UTC
预报有效从21日的 20点(UTC)到 22日的 18点(UTC)
风速14节,风向,有时为24节阵风
能見度: 10公里
散云层高于2500英尺
多云层高于5000英尺
短暂存在
从 21日的 20点(UTC)到 21日的 21点(UTC)
多云层高于2500英尺
从 22日的 0000点(UTC)
风速5节,风向
能見度: 10公里
天空无云

TAF: KEWN 211940Z 2120/2218 01014G24KT P6SM SCT025 BKN050 TEMPO 2120/2121 BKN025 FM220000 01005KT P6SM SKC

超过4000个机场的气象观测和天气预报(METAR&TAF报告)。

可查询的气象台以黄色和红色小点在地图上表示。

将鼠标移到小点上方,可查看气象台名称。

然后点击查看天气观测和预报。

如需切换地图:点击带黑十字的绿色按钮放大地图;点击带横线的绿色按钮缩小地图;或者点击绿色箭头查看邻近地区的地图。


METAR-TAF: